Time;durP1;ratioP1;P1;durP2;ratioP2;P2;SDS_P1;SDS_P2;PMS_P1;PMS_P2;Temp;Humidity;BMP_temperature;BMP_pressure;BME280_temperature;BME280_humidity;BME280_pressure;Samples;Min_cycle;Max_cycle;Signal;HPM_P1;HPM_P2
2022/09/25 00:00:45;;;;;;;9.00;2.17;;;;;;;10.00;99.02;101770.59;5050437;28;20031;-70
2022/09/25 00:03:12;;;;;;;10.07;2.58;;;;;;;10.06;99.00;101759.00;5032673;28;20032;-70
2022/09/25 00:05:39;;;;;;;8.48;2.17;;;;;;;10.17;98.84;101758.63;5050461;28;20480;-70
2022/09/25 00:08:04;;;;;;;;;;;;;;;10.06;98.94;101768.06;5050916;28;20060;-70
2022/09/25 00:10:30;;;;;;;5.05;2.15;;;;;;;10.00;99.11;101767.84;5050437;28;20287;-70
2022/09/25 00:12:56;;;;;;;8.77;2.30;;;;;;;9.93;99.36;101764.09;5050650;28;20048;-70
2022/09/25 00:15:21;;;;;;;7.90;3.13;;;;;;;9.87;99.04;101767.53;5032533;28;20048;-70
2022/09/25 00:17:47;;;;;;;12.10;2.70;;;;;;;9.78;99.58;101765.81;5050418;28;20452;-71
2022/09/25 00:20:15;;;;;;;7.53;3.13;;;;;;;9.73;99.52;101759.97;5050340;28;20070;-72
2022/09/25 00:22:41;;;;;;;6.05;2.75;;;;;;;9.69;100.00;101759.47;5050587;28;20111;-71
2022/09/25 00:25:09;;;;;;;9.20;2.47;;;;;;;9.62;99.82;101763.03;5052194;28;20052;-70
2022/09/25 00:27:35;;;;;;;10.52;2.80;;;;;;;9.59;99.94;101769.72;5053832;28;20041;-69
2022/09/25 00:30:00;;;;;;;12.73;3.40;;;;;;;9.57;100.00;101769.03;5053797;28;20437;-72
2022/09/25 00:32:25;;;;;;;8.30;2.42;;;;;;;9.51;100.00;101768.84;5035832;28;20033;-70
2022/09/25 00:34:50;;;;;;;5.95;2.50;;;;;;;9.43;100.00;101769.66;5053653;28;20060;-71
2022/09/25 00:37:16;;;;;;;10.17;3.00;;;;;;;9.50;100.00;101772.59;5053551;28;20454;-70
2022/09/25 00:39:41;;;;;;;10.60;3.05;;;;;;;9.43;100.00;101774.28;5053727;28;20086;-71
2022/09/25 00:42:09;;;;;;;8.63;2.50;;;;;;;9.40;100.00;101772.72;5035640;28;20085;-71
2022/09/25 00:44:57;;;;;;;6.30;2.92;;;;;;;9.39;100.00;101778.38;5035591;28;20025;-70
2022/09/25 00:47:43;;;;;;;;;;;;;;;9.38;100.00;101776.66;5053911;28;20029;-70
2022/09/25 00:50:18;;;;;;;14.32;2.85;;;;;;;9.34;100.00;101773.41;5042571;28;19916;-71
2022/09/25 00:52:44;;;;;;;5.90;2.55;;;;;;;9.31;100.00;101772.88;5035455;28;20119;-70
2022/09/25 00:55:11;;;;;;;8.73;2.95;;;;;;;9.28;100.00;101778.69;5035441;28;20553;-70
2022/09/25 00:57:39;;;;;;;6.30;2.85;;;;;;;9.26;100.00;101778.00;5053375;28;20105;-71
2022/09/25 01:00:08;;;;;;;11.13;2.50;;;;;;;9.24;100.00;101780.03;5053409;28;20040;-71
2022/09/25 01:02:38;;;;;;;7.80;3.13;;;;;;;9.21;100.00;101770.28;5053233;28;20025;-71
2022/09/25 01:05:16;;;;;;;7.47;2.70;;;;;;;9.21;100.00;101770.28;5053155;28;20053;-72
2022/09/25 01:07:46;;;;;;;7.63;2.83;;;;;;;9.17;100.00;101771.66;5053082;28;20076;-71
2022/09/25 01:10:13;;;;;;;12.90;3.00;;;;;;;9.20;100.00;101770.47;5034908;28;20128;-71
2022/09/25 01:12:42;;;;;;;12.13;4.43;;;;;;;9.25;100.00;101771.69;5053058;28;20058;-70
2022/09/25 01:15:11;;;;;;;5.70;2.85;;;;;;;9.23;100.00;101778.34;5053175;28;20037;-73
2022/09/25 01:17:49;;;;;;;6.63;2.58;;;;;;;9.22;100.00;101782.94;5053102;28;20025;-71
2022/09/25 01:20:31;;;;;;;9.15;3.17;;;;;;;9.45;100.00;101778.56;5053016;28;20033;-72
2022/09/25 01:23:19;;;;;;;13.30;3.75;;;;;;;9.63;100.00;101772.97;5052908;28;20029;-70
2022/09/25 01:26:19;;;;;;;7.63;3.10;;;;;;;9.55;100.00;101773.78;5034997;28;20119;-70
2022/09/25 01:28:53;;;;;;;9.10;4.15;;;;;;;9.53;100.00;101769.50;5052922;28;20491;-70
2022/09/25 01:31:31;;;;;;;14.73;3.78;;;;;;;9.43;100.00;101769.66;5052796;28;20029;-71
2022/09/25 01:34:23;;;;;;;18.23;3.08;;;;;;;9.33;100.00;101770.81;5034825;28;20032;-70
2022/09/25 01:37:02;;;;;;;8.00;2.83;;;;;;;9.24;100.00;101767.22;5021178;28;20048;-70
2022/09/25 01:39:34;;;;;;;6.80;3.00;;;;;;;9.21;100.00;101762.09;5052831;28;20029;-70
2022/09/25 01:42:06;;;;;;;10.88;2.90;;;;;;;9.15;100.00;101765.50;5053072;28;20037;-71
2022/09/25 01:44:39;;;;;;;11.40;2.85;;;;;;;9.10;100.00;101762.41;5052751;28;20449;-72
2022/09/25 01:47:18;;;;;;;11.63;3.38;;;;;;;9.05;100.00;101766.63;5052727;28;20037;-71
2022/09/25 01:49:50;;;;;;;8.30;2.85;;;;;;;9.02;100.00;101769.72;5034699;28;20029;-71
2022/09/25 01:52:30;;;;;;;8.18;2.70;;;;;;;8.98;100.00;101773.78;5052427;28;20387;-71
2022/09/25 01:55:04;;;;;;;7.38;2.95;;;;;;;8.94;100.00;101775.13;5052450;28;20064;-70
2022/09/25 01:57:38;;;;;;;9.68;3.15;;;;;;;8.85;100.00;101768.78;5052454;28;20021;-70
2022/09/25 02:00:08;;;;;;;5.03;2.53;;;;;;;8.81;100.00;101772.84;5034411;28;20029;-71
2022/09/25 02:02:59;;;;;;;6.72;2.38;;;;;;;8.80;100.00;101767.56;5052389;28;20032;-70
2022/09/25 02:05:40;;;;;;;6.13;2.70;;;;;;;8.80;100.00;101773.03;5034300;28;20139;-71
2022/09/25 02:08:21;;;;;;;10.95;2.55;;;;;;;8.68;100.00;101767.00;5052372;28;20373;-70
2022/09/25 02:10:56;;;;;;;9.48;3.05;;;;;;;8.61;100.00;101774.13;5052274;28;20025;-70
2022/09/25 02:13:24;;;;;;;6.47;2.42;;;;;;;8.59;100.00;101781.59;5052113;28;20025;-71
2022/09/25 02:16:03;;;;;;;4.75;2.20;;;;;;;8.53;100.00;101779.53;5052175;28;20032;-71
2022/09/25 02:21:32;;;;;;;5.45;2.55;;;;;;;8.46;100.00;101781.19;5052149;28;20094;-70
2022/09/25 02:24:03;;;;;;;6.80;2.53;;;;;;;8.46;100.00;101777.59;5051952;28;20173;-70
2022/09/25 02:26:32;;;;;;;6.20;2.30;;;;;;;8.45;100.00;101779.50;5052274;28;20075;-70
2022/09/25 02:28:58;;;;;;;9.20;2.80;;;;;;;8.42;100.00;101779.81;5051817;28;20498;-69
2022/09/25 02:31:34;;;;;;;8.85;2.25;;;;;;;8.38;100.00;101781.13;5051985;28;20500;-70
2022/09/25 02:33:59;;;;;;;5.03;2.22;;;;;;;8.35;100.00;101777.88;5051835;28;20120;-70
2022/09/25 02:36:25;;;;;;;4.28;2.35;;;;;;;8.31;100.00;101776.47;5051679;28;20151;-70
2022/09/25 02:38:52;;;;;;;8.67;2.50;;;;;;;8.29;100.00;101775.78;5051625;28;20552;-70
2022/09/25 02:41:30;;;;;;;6.60;2.33;;;;;;;8.21;100.00;101775.72;5051806;28;20052;-70
2022/09/25 02:44:01;;;;;;;;;;;;;;;8.26;100.00;101774.22;5052349;28;20025;-70
2022/09/25 02:46:43;;;;;;;4.30;2.30;;;;;;;8.25;100.00;101769.78;5033641;28;19952;-70
2022/09/25 02:49:32;;;;;;;7.30;2.40;;;;;;;8.25;100.00;101768.94;5050989;28;20041;-70
2022/09/25 02:52:08;;;;;;;5.60;1.85;;;;;;;8.22;100.00;101774.72;5051690;28;20057;-70
2022/09/25 02:54:50;;;;;;;7.35;2.25;;;;;;;8.15;100.00;101763.53;5033610;28;20064;-69
2022/09/25 02:57:44;;;;;;;7.88;2.30;;;;;;;8.11;100.00;101766.75;5051448;28;20036;-70
2022/09/25 03:00:10;;;;;;;5.72;2.30;;;;;;;8.13;100.00;101762.00;5033513;28;20033;-70
2022/09/25 03:02:38;;;;;;;5.05;2.67;;;;;;;8.12;100.00;101771.19;5033501;28;20120;-69
2022/09/25 03:05:05;;;;;;;6.15;2.05;;;;;;;8.06;100.00;101763.66;5051528;28;20037;-70
2022/09/25 03:08:36;;;;;;;5.30;2.50;;;;;;;8.07;100.00;101768.91;5051370;28;20518;-72
2022/09/25 03:10:18;;;;;;;3.20;2.33;;;;;;;8.02;100.00;101767.69;5051150;28;20040;-70
2022/09/25 03:12:43;;;;;;;12.57;2.58;;;;;;;8.06;100.00;101764.50;5033268;28;20025;-70
2022/09/25 03:15:10;;;;;;;5.72;2.80;;;;;;;8.07;100.00;101777.09;5051366;28;20036;-70
2022/09/25 03:17:36;;;;;;;8.75;2.67;;;;;;;8.00;100.00;101776.03;5050965;28;20537;-71
2022/09/25 03:20:01;;;;;;;5.30;2.50;;;;;;;7.98;100.00;101788.13;5033229;28;20029;-71
2022/09/25 03:22:26;;;;;;;8.10;2.13;;;;;;;7.94;100.00;101782.13;5033237;28;20883;-71
2022/09/25 03:24:52;;;;;;;5.25;2.30;;;;;;;7.96;100.00;101779.25;5050994;28;20028;-71
2022/09/25 03:27:18;;;;;;;4.00;2.33;;;;;;;7.98;100.00;101777.22;5051261;28;20513;-70
2022/09/25 03:29:43;;;;;;;11.45;3.08;;;;;;;7.97;100.00;101770.03;5033059;28;20546;-71
2022/09/25 03:32:09;;;;;;;3.85;1.92;;;;;;;7.94;100.00;101771.22;5033086;28;20037;-70
2022/09/25 03:34:34;;;;;;;6.95;2.47;;;;;;;8.00;100.00;101769.75;5032867;28;20127;-71
2022/09/25 03:36:59;;;;;;;11.87;2.13;;;;;;;8.01;100.00;101768.72;5032874;28;20086;-70
2022/09/25 03:39:25;;;;;;;7.10;2.50;;;;;;;8.06;100.00;101774.56;5050856;28;20032;-70
2022/09/25 03:41:50;;;;;;;6.37;2.33;;;;;;;8.09;100.00;101768.78;5032778;28;20036;-71
2022/09/25 03:44:15;;;;;;;8.98;2.40;;;;;;;8.12;100.00;101768.47;5050912;28;20025;-70
2022/09/25 03:46:41;;;;;;;8.68;2.50;;;;;;;8.14;100.00;101760.97;5050800;28;20475;-70
2022/09/25 03:49:06;;;;;;;8.13;2.23;;;;;;;8.21;100.00;101764.78;5032875;28;20488;-70
2022/09/25 03:51:32;;;;;;;4.50;2.10;;;;;;;8.25;100.00;101766.19;5032847;28;20025;-70
2022/09/25 03:53:58;;;;;;;9.13;2.50;;;;;;;8.33;100.00;101772.56;5050693;28;20036;-69
2022/09/25 03:56:27;;;;;;;4.90;2.20;;;;;;;8.34;100.00;101765.25;5032622;28;20476;-70
2022/09/25 03:58:55;;;;;;;6.35;2.40;;;;;;;8.46;100.00;101766.69;5050529;28;20060;-70
2022/09/25 04:01:22;;;;;;;6.72;3.10;;;;;;;8.55;100.00;101765.72;5050441;28;20028;-70
2022/09/25 04:03:48;;;;;;;14.18;2.70;;;;;;;8.62;100.00;101764.03;5032534;28;20025;-70
2022/09/25 04:06:17;;;;;;;13.15;3.00;;;;;;;8.70;100.00;101758.66;5050474;28;20028;-70
2022/09/25 04:08:43;;;;;;;5.72;2.47;;;;;;;8.75;100.00;101757.13;5050254;28;20112;-70
2022/09/25 04:11:09;;;;;;;9.43;2.17;;;;;;;8.81;100.00;101758.34;5032384;28;20036;-72
2022/09/25 04:13:35;;;;;;;7.88;2.38;;;;;;;8.91;100.00;101761.81;5050425;28;20033;-70
2022/09/25 04:16:02;;;;;;;11.75;2.65;;;;;;;8.92;100.00;101753.44;5050364;28;20025;-69
2022/09/25 04:18:30;;;;;;;4.45;2.72;;;;;;;9.03;100.00;101752.28;5032266;28;20094;-70
2022/09/25 04:20:59;;;;;;;9.02;2.50;;;;;;;9.08;100.00;101752.66;5032198;28;20025;-70
2022/09/25 04:23:25;;;;;;;6.95;2.50;;;;;;;9.09;100.00;101746.16;5050193;28;20032;-70
2022/09/25 04:25:51;;;;;;;6.63;2.38;;;;;;;9.10;100.00;101742.41;5050358;28;20029;-69
2022/09/25 04:28:16;;;;;;;10.50;2.63;;;;;;;9.15;100.00;101748.22;5050239;28;20037;-70
2022/09/25 04:30:41;;;;;;;7.18;2.83;;;;;;;9.12;100.00;101740.38;5032133;28;20166;-72
2022/09/25 04:35:52;;;;;;;6.40;1.67;;;;;;;8.99;100.00;101742.72;5050420;28;20090;-71
2022/09/25 04:38:18;;;;;;;8.38;2.65;;;;;;;8.94;100.00;101736.88;5050121;28;20107;-70
2022/09/25 04:40:44;;;;;;;7.73;2.23;;;;;;;8.86;100.00;101736.88;5050160;28;20055;-71
2022/09/25 04:43:09;;;;;;;4.10;1.95;;;;;;;8.79;100.00;101733.06;5050048;28;20031;-71
2022/09/25 04:45:36;;;;;;;6.28;2.00;;;;;;;8.73;100.00;101731.84;5050225;28;20379;-70
2022/09/25 04:48:02;;;;;;;5.43;2.20;;;;;;;8.74;100.00;101736.28;5049874;28;20036;-70
2022/09/25 04:50:28;;;;;;;8.65;2.28;;;;;;;8.71;100.00;101733.88;5049938;28;20148;-71
2022/09/25 04:52:55;;;;;;;6.00;2.27;;;;;;;8.64;100.00;101732.81;5049941;28;20083;-69
2022/09/25 04:55:23;;;;;;;4.97;2.03;;;;;;;8.57;100.00;101728.19;5032032;28;20021;-72
2022/09/25 04:58:00;;;;;;;9.45;2.35;;;;;;;8.52;100.00;101731.41;5031851;28;20063;-71
2022/09/25 05:00:30;;;;;;;8.60;2.75;;;;;;;8.43;100.00;101717.88;5049747;28;20114;-71
2022/09/25 05:02:56;;;;;;;7.20;2.20;;;;;;;8.39;100.00;101727.41;5049772;28;20029;-70
2022/09/25 05:05:21;;;;;;;6.45;2.40;;;;;;;8.35;100.00;101731.47;5049781;28;20514;-72
2022/09/25 05:07:51;;;;;;;3.22;1.77;;;;;;;8.29;100.00;101732.13;5049895;28;20033;-71
2022/09/25 05:10:16;;;;;;;4.88;1.80;;;;;;;8.25;100.00;101734.31;5031938;28;20090;-71
2022/09/25 05:12:42;;;;;;;5.18;1.92;;;;;;;8.20;100.00;101736.66;5052976;28;20080;-72
2022/09/25 05:15:08;;;;;;;4.77;1.70;;;;;;;8.16;100.00;101731.66;5053286;28;20043;-71
2022/09/25 05:17:33;;;;;;;7.80;2.33;;;;;;;8.08;100.00;101735.19;5035162;28;20120;-72
2022/09/25 05:19:59;;;;;;;8.23;2.15;;;;;;;8.08;100.00;101737.91;5035340;28;20472;-70
2022/09/25 05:22:24;;;;;;;5.72;1.98;;;;;;;8.02;100.00;101735.81;5035169;28;20017;-71
2022/09/25 05:24:52;;;;;;;6.03;2.77;;;;;;;8.04;100.00;101735.66;5035146;28;20040;-72
2022/09/25 05:27:17;;;;;;;3.63;1.67;;;;;;;8.01;100.00;101727.81;5053224;28;20115;-71
2022/09/25 05:29:42;;;;;;;8.88;2.00;;;;;;;7.99;100.00;101738.88;5035061;28;20392;-71
2022/09/25 05:32:08;;;;;;;4.82;2.15;;;;;;;8.02;100.00;101735.81;5035110;28;20047;-71
2022/09/25 05:34:34;;;;;;;6.18;2.30;;;;;;;8.01;100.00;101742.28;5053360;28;20033;-71
2022/09/25 05:36:59;;;;;;;5.40;2.80;;;;;;;8.05;100.00;101735.50;5054349;28;20079;-71
2022/09/25 05:39:25;;;;;;;8.77;2.20;;;;;;;7.96;100.00;101741.06;5054558;28;20476;-70
2022/09/25 05:41:50;;;;;;;6.38;2.50;;;;;;;7.98;100.00;101733.56;5054052;28;20029;-70
2022/09/25 05:44:15;;;;;;;6.40;2.57;;;;;;;8.05;100.00;101748.28;5053341;28;20029;-70
2022/09/25 05:46:41;;;;;;;10.77;5.00;;;;;;;8.07;100.00;101743.53;5052657;28;20031;-72
2022/09/25 05:49:06;;;;;;;13.63;4.40;;;;;;;8.08;100.00;101734.31;5052732;28;20388;-70
2022/09/25 05:51:32;;;;;;;9.23;3.35;;;;;;;8.07;100.00;101741.63;5052444;28;20025;-70
2022/09/25 05:53:59;;;;;;;5.72;2.50;;;;;;;8.06;100.00;101739.09;5052606;28;20048;-71
2022/09/25 05:56:25;;;;;;;6.40;2.80;;;;;;;8.00;100.00;101734.28;5052607;28;20111;-71
2022/09/25 05:58:51;;;;;;;8.02;2.67;;;;;;;8.07;100.00;101738.06;5052534;28;20111;-70
2022/09/25 06:01:17;;;;;;;14.82;2.97;;;;;;;8.03;100.00;101723.03;5052147;28;20028;-70
2022/09/25 06:03:43;;;;;;;6.57;2.53;;;;;;;8.05;100.00;101734.63;5034801;28;20083;-72
2022/09/25 06:06:08;;;;;;;6.28;2.63;;;;;;;8.04;100.00;101731.06;5054391;28;20029;-71
2022/09/25 06:08:37;;;;;;;4.50;2.55;;;;;;;8.08;100.00;101739.78;5034602;28;20037;-70
2022/09/25 06:11:03;;;;;;;7.43;3.00;;;;;;;8.07;100.00;101733.44;5052374;28;20392;-71
2022/09/25 06:13:31;;;;;;;;;;;;;;;8.08;100.00;101746.09;5053631;28;20036;-71
2022/09/25 06:15:57;;;;;;;8.20;3.10;;;;;;;8.09;100.00;101749.66;5053835;28;19990;-70
2022/09/25 06:18:24;;;;;;;10.27;2.83;;;;;;;8.12;100.00;101742.03;5053270;28;20427;-71
2022/09/25 06:20:50;;;;;;;6.22;2.67;;;;;;;8.09;100.00;101752.41;5052577;28;20029;-71
2022/09/25 06:23:16;;;;;;;10.27;2.33;;;;;;;8.13;100.00;101748.34;5051269;28;20040;-71
2022/09/25 06:25:42;;;;;;;7.60;2.75;;;;;;;8.16;100.00;101753.50;5052184;28;20048;-72
2022/09/25 06:28:09;;;;;;;4.40;2.38;;;;;;;8.17;100.00;101750.59;5052568;28;20037;-71
2022/09/25 06:30:34;;;;;;;;;;;;;;;8.23;100.00;101754.59;5052300;28;20063;-70
2022/09/25 06:33:11;;;;;;;12.38;4.28;;;;;;;8.24;100.00;101756.31;5033945;28;19989;-71
2022/09/25 06:35:44;;;;;;;4.93;2.97;;;;;;;8.31;100.00;101751.91;5033917;28;20056;-71
2022/09/25 06:38:10;;;;;;;6.13;3.53;;;;;;;8.39;100.00;101760.16;5052165;28;20764;-70
2022/09/25 06:40:39;;;;;;;7.77;2.73;;;;;;;8.45;100.00;101768.56;5052370;28;20128;-71
2022/09/25 06:43:06;;;;;;;4.20;2.88;;;;;;;8.44;100.00;101763.28;5052179;28;20043;-71
2022/09/25 06:45:33;;;;;;;8.32;2.80;;;;;;;8.53;100.00;101771.34;5052085;28;20500;-71
2022/09/25 06:48:13;;;;;;;7.07;3.05;;;;;;;8.60;100.00;101760.63;5052227;28;20207;-71
2022/09/25 06:50:48;;;;;;;6.18;3.22;;;;;;;8.68;100.00;101756.06;5052910;28;20029;-72
2022/09/25 06:53:15;;;;;;;5.28;2.70;;;;;;;8.82;100.00;101765.53;5051656;28;20039;-71
2022/09/25 06:55:44;;;;;;;;;;;;;;;8.97;100.00;101766.63;5051911;28;20043;-72
2022/09/25 06:58:11;;;;;;;5.78;2.60;;;;;;;9.19;100.00;101755.09;5033775;28;19917;-71
2022/09/25 07:00:37;;;;;;;6.00;2.55;;;;;;;9.36;100.00;101765.91;5033876;28;20549;-71
2022/09/25 07:05:47;;;;;;;4.65;2.25;;;;;;;9.83;100.00;101768.88;5051361;28;20043;-69
2022/09/25 07:08:19;;;;;;;5.53;2.55;;;;;;;9.99;100.00;101764.25;5051484;28;20036;-71
2022/09/25 07:10:49;;;;;;;4.20;2.45;;;;;;;10.17;100.00;101758.63;5051318;28;20430;-71
2022/09/25 07:13:23;;;;;;;12.95;3.95;;;;;;;10.31;100.00;101763.44;5051213;28;20021;-71
2022/09/25 07:15:58;;;;;;;9.38;5.10;;;;;;;10.54;100.00;101767.13;5051327;28;20037;-71
2022/09/25 07:18:25;;;;;;;12.43;4.78;;;;;;;10.66;100.00;101760.25;5051157;28;20036;-71
2022/09/25 07:20:52;;;;;;;11.30;3.90;;;;;;;10.76;100.00;101771.88;5033502;28;20021;-70
2022/09/25 07:23:19;;;;;;;6.28;3.38;;;;;;;10.85;100.00;101765.34;5033244;28;20033;-69
2022/09/25 07:25:45;;;;;;;;;;;;;;;10.97;100.00;101770.28;5051369;28;20487;-69
2022/09/25 07:28:14;;;;;;;4.97;2.45;;;;;;;11.05;100.00;101767.47;5033242;28;19920;-69
2022/09/25 07:30:41;;;;;;;8.02;2.78;;;;;;;11.18;100.00;101766.91;5051278;28;20112;-69
2022/09/25 07:33:06;;;;;;;7.85;2.40;;;;;;;11.29;100.00;101761.03;5033097;28;20380;-70
2022/09/25 07:35:36;;;;;;;7.47;2.40;;;;;;;11.42;100.00;101758.56;5050726;28;20028;-70
2022/09/25 07:38:02;;;;;;;7.70;2.40;;;;;;;11.52;100.00;101756.47;5032778;28;20024;-70
2022/09/25 07:40:27;;;;;;;8.60;2.10;;;;;;;11.66;100.00;101755.69;5050882;28;20032;-69
2022/09/25 07:43:00;;;;;;;4.93;2.20;;;;;;;11.76;99.62;101750.81;5050987;28;20036;-69
2022/09/25 07:45:26;;;;;;;5.90;2.00;;;;;;;11.86;99.04;101752.25;5051250;28;20040;-70
2022/09/25 07:47:59;;;;;;;7.55;2.90;;;;;;;11.99;98.98;101757.16;5050886;28;20111;-70
2022/09/25 07:50:25;;;;;;;11.23;2.53;;;;;;;12.07;98.45;101766.16;5050771;28;20035;-69
2022/09/25 07:52:52;;;;;;;7.00;2.23;;;;;;;12.21;98.93;101762.63;5032893;28;20025;-69
2022/09/25 07:55:17;;;;;;;7.40;2.63;;;;;;;12.30;97.31;101761.53;5050859;28;20266;-69
2022/09/25 07:57:42;;;;;;;10.43;2.20;;;;;;;12.41;97.14;101762.94;5050649;28;20090;-70
2022/09/25 08:00:08;;;;;;;7.90;1.80;;;;;;;12.51;95.98;101761.66;5051053;28;20025;-70
2022/09/25 08:02:34;;;;;;;6.57;2.00;;;;;;;12.64;96.87;101764.59;5050954;28;20107;-69
2022/09/25 08:05:00;;;;;;;4.80;1.93;;;;;;;12.78;94.88;101754.66;5050731;28;20021;-69
2022/09/25 08:07:27;;;;;;;7.03;2.23;;;;;;;12.83;93.89;101761.28;5050693;28;20456;-70
2022/09/25 08:09:52;;;;;;;7.05;1.77;;;;;;;12.89;91.41;101763.28;5050479;28;20028;-69
2022/09/25 08:12:18;;;;;;;6.53;2.20;;;;;;;12.92;92.70;101764.81;5050521;28;20029;-70
2022/09/25 08:14:43;;;;;;;3.63;1.90;;;;;;;12.91;92.05;101768.59;5050581;28;20033;-69
2022/09/25 08:17:08;;;;;;;9.77;1.90;;;;;;;12.92;89.79;101757.38;5050433;28;20444;-70
2022/09/25 08:19:33;;;;;;;8.70;1.93;;;;;;;13.02;88.92;101766.25;5050605;28;20550;-71
2022/09/25 08:21:59;;;;;;;10.47;2.33;;;;;;;13.06;86.65;101761.19;5050527;28;20036;-69
2022/09/25 08:24:24;;;;;;;7.07;1.77;;;;;;;13.11;87.53;101773.34;5050449;28;20388;-70
2022/09/25 08:26:49;;;;;;;6.40;2.30;;;;;;;13.20;86.95;101771.34;5050366;28;20040;-70
2022/09/25 08:29:14;;;;;;;5.17;1.40;;;;;;;13.32;86.92;101756.91;5050509;28;20107;-70
2022/09/25 08:31:40;;;;;;;5.73;1.53;;;;;;;13.56;85.81;101755.72;5050331;28;20029;-71
2022/09/25 08:34:07;;;;;;;7.27;2.03;;;;;;;13.75;86.52;101766.09;5050279;28;20029;-71
2022/09/25 08:36:32;;;;;;;;;;;;;;;13.85;84.41;101770.25;5050605;28;20040;-72
2022/09/25 08:38:59;;;;;;;8.75;1.88;;;;;;;14.11;83.46;101758.63;5032259;28;19924;-72
2022/09/25 08:41:29;;;;;;;11.45;1.98;;;;;;;14.32;82.99;101764.13;5050390;28;20033;-70
2022/09/25 08:44:19;;;;;;;5.93;2.03;;;;;;;14.72;82.45;101766.16;5050302;28;20024;-71
2022/09/25 08:49:40;;;;;;;4.38;1.52;;;;;;;15.01;79.07;101755.75;5053478;28;20404;-71
2022/09/25 08:52:10;;;;;;;8.48;1.60;;;;;;;15.08;78.62;101766.78;5053621;28;20503;-71
2022/09/25 08:54:35;;;;;;;11.90;1.92;;;;;;;15.13;76.23;101769.78;5053490;28;20488;-72
2022/09/25 08:57:15;;;;;;;7.97;1.60;;;;;;;15.27;77.82;101761.34;5053725;28;20040;-73
2022/09/25 08:59:46;;;;;;;6.90;1.60;;;;;;;15.23;75.54;101762.84;5053591;28;20116;-71
2022/09/25 09:02:23;;;;;;;6.15;1.50;;;;;;;15.19;77.16;101758.78;5053817;28;20036;-71
2022/09/25 09:04:55;;;;;;;5.07;1.40;;;;;;;15.08;75.09;101755.75;5053417;28;20025;-71
2022/09/25 09:07:25;;;;;;;5.85;1.55;;;;;;;15.12;75.97;101762.56;5053538;28;20082;-72
2022/09/25 09:09:55;;;;;;;4.28;1.05;;;;;;;14.98;75.16;101758.03;5053513;28;20110;-72
2022/09/25 09:12:35;;;;;;;7.13;1.98;;;;;;;15.03;78.53;101767.41;5053393;28;20476;-71
2022/09/25 09:15:19;;;;;;;6.40;1.38;;;;;;;15.28;76.94;101757.56;5053346;28;20032;-73
2022/09/25 09:17:44;;;;;;;7.97;1.40;;;;;;;15.47;76.56;101762.34;5053278;28;20033;-72
2022/09/25 09:20:16;;;;;;;6.10;1.13;;;;;;;15.43;74.50;101751.91;5053290;28;20082;-72
2022/09/25 09:22:47;;;;;;;7.15;1.48;;;;;;;15.26;75.00;101748.63;5053497;28;20028;-73
2022/09/25 09:25:43;;;;;;;10.50;1.52;;;;;;;15.32;75.43;101758.00;5053275;28;20078;-71
2022/09/25 09:28:36;;;;;;;10.68;1.75;;;;;;;15.41;72.99;101746.59;5053091;28;20032;-71
2022/09/25 09:31:28;;;;;;;11.70;1.90;;;;;;;15.73;71.82;101750.50;5053005;28;20480;-71
2022/09/25 09:34:17;;;;;;;6.20;1.40;;;;;;;15.76;72.16;101750.97;5053021;28;20083;-71
2022/09/25 09:36:55;;;;;;;15.55;2.45;;;;;;;15.91;72.46;101748.03;5026827;28;20041;-71
2022/09/25 09:39:31;;;;;;;7.95;1.20;;;;;;;15.96;67.33;101746.31;5052881;28;20067;-72
2022/09/25 09:42:16;;;;;;;5.15;1.20;;;;;;;16.11;67.21;101755.25;5052856;28;20029;-71
2022/09/25 09:45:00;;;;;;;5.13;1.73;;;;;;;16.37;69.23;101746.13;5052806;28;20488;-72
2022/09/25 09:47:47;;;;;;;3.97;1.10;;;;;;;16.55;66.57;101746.38;5052865;28;20029;-73
2022/09/25 09:50:19;;;;;;;5.32;1.10;;;;;;;16.77;68.95;101745.94;5034749;28;20403;-71
2022/09/25 09:52:48;;;;;;;4.50;1.50;;;;;;;16.86;66.64;101741.84;5052626;28;20156;-71
2022/09/25 09:55:26;;;;;;;5.82;1.30;;;;;;;16.98;64.94;101742.03;5052668;28;20029;-71
2022/09/25 09:57:55;;;;;;;3.63;1.10;;;;;;;17.08;65.67;101747.97;5052263;28;20029;-72
2022/09/25 10:00:22;;;;;;;6.85;1.27;;;;;;;17.24;64.45;101742.78;5034635;28;20079;-71
2022/09/25 10:02:53;;;;;;;5.65;1.60;;;;;;;17.44;63.99;101742.75;5052425;28;20080;-71
2022/09/25 10:05:18;;;;;;;7.55;1.30;;;;;;;17.45;62.27;101747.22;5052491;28;20029;-72
2022/09/25 10:07:46;;;;;;;5.00;1.33;;;;;;;17.76;62.28;101742.56;5052375;28;20083;-71
2022/09/25 10:10:14;;;;;;;4.55;1.40;;;;;;;17.68;61.33;101737.31;5052418;28;20024;-70
2022/09/25 10:12:49;;;;;;;5.65;1.75;;;;;;;17.90;60.15;101735.03;5052344;28;20036;-70
2022/09/25 10:15:25;;;;;;;9.55;3.28;;;;;;;18.09;60.82;101731.28;5052230;28;20029;-71
2022/09/25 10:17:52;;;;;;;4.20;1.40;;;;;;;18.38;58.72;101741.72;5052068;28;20039;-70
2022/09/25 10:20:20;;;;;;;3.53;1.25;;;;;;;18.36;57.75;101743.88;5034048;28;20496;-70
2022/09/25 10:22:47;;;;;;;4.75;1.10;;;;;;;18.35;59.04;101736.66;5052105;28;20039;-71
2022/09/25 10:25:13;;;;;;;4.05;1.17;;;;;;;18.13;60.91;101743.59;5052006;28;20457;-71
2022/09/25 10:27:46;;;;;;;3.03;0.90;;;;;;;17.98;59.57;101746.69;5052081;28;20037;-70
2022/09/25 10:30:17;;;;;;;3.90;0.95;;;;;;;17.70;58.12;101737.06;5052194;28;20437;-71
2022/09/25 10:32:52;;;;;;;1.30;0.90;;;;;;;17.09;58.17;101739.47;5051924;28;20044;-70
2022/09/25 10:35:36;;;;;;;4.18;1.00;;;;;;;17.22;59.23;101727.47;5051817;28;20484;-70
2022/09/25 10:38:02;;;;;;;6.72;1.20;;;;;;;16.96;60.86;101735.88;5051600;28;20080;-70
2022/09/25 10:40:33;;;;;;;2.53;1.00;;;;;;;16.76;62.11;101738.66;5051737;28;20400;-71
2022/09/25 10:43:11;;;;;;;2.00;1.05;;;;;;;16.78;66.27;101739.31;5051761;28;20029;-70
2022/09/25 10:45:39;;;;;;;;;;;;;;;16.64;66.51;101737.63;5052201;28;20033;-70
2022/09/25 10:51:16;;;;;;;3.08;1.13;;;;;;;16.28;65.77;101736.34;5051781;28;20040;-71
2022/09/25 10:53:45;;;;;;;7.82;2.28;;;;;;;16.28;67.67;101734.44;5051551;28;20396;-70
2022/09/25 10:56:16;;;;;;;6.28;1.20;;;;;;;16.14;66.33;101734.63;5051655;28;20400;-70
2022/09/25 10:58:53;;;;;;;4.60;1.45;;;;;;;15.99;66.20;101734.84;5051347;28;20480;-70
2022/09/25 11:01:20;;;;;;;6.45;2.00;;;;;;;15.97;65.73;101727.81;5051563;28;20028;-70
2022/09/25 11:03:51;;;;;;;6.38;1.42;;;;;;;15.88;67.28;101726.31;5033363;28;20075;-70
2022/09/25 11:06:23;;;;;;;8.57;1.75;;;;;;;15.85;66.04;101732.28;5051644;28;20103;-69
2022/09/25 11:09:13;;;;;;;9.95;1.08;;;;;;;16.18;64.59;101727.63;5050741;28;20439;-70
2022/09/25 11:11:40;;;;;;;3.03;0.95;;;;;;;16.03;64.09;101726.97;5050580;28;20399;-70
2022/09/25 11:14:31;;;;;;;1.15;0.73;;;;;;;16.41;64.81;101720.66;5051081;28;20486;-70
2022/09/25 11:16:59;;;;;;;5.18;1.00;;;;;;;16.67;65.53;101712.31;5051415;28;20033;-70
2022/09/25 11:19:29;;;;;;;2.67;1.00;;;;;;;16.96;62.86;101710.97;5051199;28;20104;-69
2022/09/25 11:22:25;;;;;;;2.97;1.00;;;;;;;17.22;58.91;101713.63;5051280;28;20033;-70
2022/09/25 11:25:10;;;;;;;5.80;1.10;;;;;;;17.80;60.52;101716.13;5051317;28;20021;-70
2022/09/25 11:27:44;;;;;;;3.20;0.77;;;;;;;17.68;55.68;101706.81;5051118;28;20078;-69
2022/09/25 11:30:15;;;;;;;2.72;0.90;;;;;;;18.19;56.83;101701.13;5051005;28;20025;-71
2022/09/25 11:32:49;;;;;;;4.55;0.90;;;;;;;18.50;57.10;101695.50;5050998;28;20473;-70
2022/09/25 11:35:33;;;;;;;3.90;0.90;;;;;;;18.86;53.88;101695.56;5051004;28;20032;-69
2022/09/25 11:41:11;;;;;;;3.88;1.08;;;;;;;19.23;56.77;101694.50;5033045;28;20502;-69
2022/09/25 11:41:19;;;;;;;4.88;0.85;;;;;;;19.64;53.52;101692.63;5050809;28;20040;-71
2022/09/25 11:44:22;;;;;;;4.20;0.98;;;;;;;19.66;53.35;101681.28;5051102;28;20099;-71
2022/09/25 11:47:06;;;;;;;4.07;1.23;;;;;;;19.31;53.80;101683.09;5050651;28;20126;-69
2022/09/25 11:49:35;;;;;;;2.22;0.88;;;;;;;18.20;58.08;101687.00;5032571;28;20041;-70
2022/09/25 11:52:29;;;;;;;2.85;1.40;;;;;;;17.44;61.49;101688.19;5050696;28;20314;-71
2022/09/25 11:55:33;;;;;;;3.10;1.40;;;;;;;16.98;64.94;101695.81;5050596;28;20499;-71
2022/09/25 11:58:13;;;;;;;2.05;0.77;;;;;;;16.88;66.65;101689.03;5050562;28;20472;-71